Hauptseite
METAR-TAF:

METAR-TAF

Flughäfen :

Flughafen Nouakchott-Oumtounsy

Nouakchott, Mauretanien

Breite: 18-18-36N, Länge: 015-58-11W, Höhe: 3 m

Beobachtung

Neuester Wetterbericht von vor 25 Minuten, um 13:00 UTC
Wind 11 kt aus Ost
Temperatur 34°C
Luftfeuchtigkeit 8%
Luftdruck 1010 hPa
Sichtweite 10 km oder mehr
keine Wolken unter 1500 m und keine Kumulonimbus oder Gewitterwolken

METAR: GQNO 201300Z 08011KT CAVOK 34/M05 Q1010 NOSIG

Zeit: 13:25 (13:25 UTC)

Prognose

Neuester Wetterbericht von vor 2 Stunden und 25 Minuten, um 11:00 UTC
Gültige Prognose vom 20 um 12 UTC bis 21 um 18 UTC
Wind 10 kt aus Ost/Nordost
Sichtweite: 8000 m
Übergehend zu
vom 20 um 16 UTC bis 20 um 18 UTC
Wind 10 kt aus Nord/Nordwest
Übergehend zu
vom 21 um 08 UTC bis 21 um 10 UTC
Wind 8 kt aus Ost/Nordost

TAF: GQNO 201100Z 2012/2118 06010KT 8000 NSC BECMG 2016/2018 34010KT BECMG 2108/2110 07008KT

Wetterbeobachtungen und Prognosen von mehr als 4000 Flughäfen (METAR und TAF Bericht).

Die verfügbaren Stationen werden durch gelbe und rote Markierungen auf der Karte dargestellt.

Führen Sie die Maus auf sie, um den Namen der Station zu sehen.

Darauf klicken, um die Beobachtung von Wetterbeobachtungen und Prognosen zu sehen.

Um die Karte zu ändern : klicken Sie auf den grünen Tasten mit einem schwarzen Kreuz Zum Vergrößern, auf den grünen Button mit einem Gedankenstrich zu verkleinern, oder auf die grünen Pfeile für benachbarte Karten.


METAR-TAF: